sensor_id;sensor_type;location;lat;lon;timestamp;P1;durP1;ratioP1;P2;durP2;ratioP2
5722;SDS011;2886;49.722;8.612;2023-07-08T00:00:42;10.23;;;6.30;;
5722;SDS011;2886;49.722;8.612;2023-07-08T00:03:08;10.70;;;6.40;;
5722;SDS011;2886;49.722;8.612;2023-07-08T00:05:34;11.60;;;6.43;;
5722;SDS011;2886;49.722;8.612;2023-07-08T00:08:00;11.80;;;6.07;;
5722;SDS011;2886;49.722;8.612;2023-07-08T00:10:27;11.37;;;6.27;;
5722;SDS011;2886;49.722;8.612;2023-07-08T00:12:54;12.30;;;5.87;;
5722;SDS011;2886;49.722;8.612;2023-07-08T00:15:22;15.43;;;6.10;;
5722;SDS011;2886;49.722;8.612;2023-07-08T00:17:51;10.70;;;6.37;;
5722;SDS011;2886;49.722;8.612;2023-07-08T00:22:45;10.63;;;6.30;;
5722;SDS011;2886;49.722;8.612;2023-07-08T00:25:12;10.87;;;6.80;;
5722;SDS011;2886;49.722;8.612;2023-07-08T00:27:42;12.97;;;6.10;;
5722;SDS011;2886;49.722;8.612;2023-07-08T00:30:15;15.20;;;5.97;;
5722;SDS011;2886;49.722;8.612;2023-07-08T00:32:47;12.83;;;6.63;;
5722;SDS011;2886;49.722;8.612;2023-07-08T00:35:18;11.67;;;5.97;;
5722;SDS011;2886;49.722;8.612;2023-07-08T00:40:52;15.10;;;8.30;;
5722;SDS011;2886;49.722;8.612;2023-07-08T00:43:39;13.80;;;7.40;;
5722;SDS011;2886;49.722;8.612;2023-07-08T00:51:43;14.23;;;7.70;;
5722;SDS011;2886;49.722;8.612;2023-07-08T00:54:10;14.90;;;7.47;;
5722;SDS011;2886;49.722;8.612;2023-07-08T00:56:39;13.57;;;8.00;;
5722;SDS011;2886;49.722;8.612;2023-07-08T00:59:07;15.40;;;7.80;;
5722;SDS011;2886;49.722;8.612;2023-07-08T01:01:36;15.90;;;7.20;;
5722;SDS011;2886;49.722;8.612;2023-07-08T01:04:24;14.10;;;7.53;;
5722;SDS011;2886;49.722;8.612;2023-07-08T01:07:07;13.50;;;7.30;;
5722;SDS011;2886;49.722;8.612;2023-07-08T01:09:36;14.10;;;8.07;;
5722;SDS011;2886;49.722;8.612;2023-07-08T01:12:07;17.53;;;7.53;;
5722;SDS011;2886;49.722;8.612;2023-07-08T01:14:38;14.83;;;7.20;;
5722;SDS011;2886;49.722;8.612;2023-07-08T01:17:07;13.20;;;7.30;;
5722;SDS011;2886;49.722;8.612;2023-07-08T01:19:39;12.87;;;7.13;;
5722;SDS011;2886;49.722;8.612;2023-07-08T01:22:06;17.40;;;8.03;;
5722;SDS011;2886;49.722;8.612;2023-07-08T01:24:33;15.13;;;7.60;;
5722;SDS011;2886;49.722;8.612;2023-07-08T01:27:02;13.70;;;7.27;;
5722;SDS011;2886;49.722;8.612;2023-07-08T01:29:30;14.90;;;7.43;;
5722;SDS011;2886;49.722;8.612;2023-07-08T01:31:56;20.53;;;8.60;;
5722;SDS011;2886;49.722;8.612;2023-07-08T01:34:24;16.77;;;7.80;;
5722;SDS011;2886;49.722;8.612;2023-07-08T01:36:51;20.43;;;8.83;;
5722;SDS011;2886;49.722;8.612;2023-07-08T01:39:23;17.10;;;8.37;;
5722;SDS011;2886;49.722;8.612;2023-07-08T01:41:50;12.27;;;6.70;;
5722;SDS011;2886;49.722;8.612;2023-07-08T01:46:57;17.13;;;7.40;;
5722;SDS011;2886;49.722;8.612;2023-07-08T01:49:27;14.67;;;7.13;;
5722;SDS011;2886;49.722;8.612;2023-07-08T01:51:54;14.47;;;8.00;;
5722;SDS011;2886;49.722;8.612;2023-07-08T01:54:21;14.57;;;7.77;;
5722;SDS011;2886;49.722;8.612;2023-07-08T01:56:46;17.80;;;7.40;;
5722;SDS011;2886;49.722;8.612;2023-07-08T01:59:16;18.20;;;7.73;;
5722;SDS011;2886;49.722;8.612;2023-07-08T02:01:42;14.73;;;7.37;;
5722;SDS011;2886;49.722;8.612;2023-07-08T02:04:07;12.13;;;7.20;;
5722;SDS011;2886;49.722;8.612;2023-07-08T02:06:33;12.30;;;6.53;;
5722;SDS011;2886;49.722;8.612;2023-07-08T02:08:59;25.70;;;7.83;;
5722;SDS011;2886;49.722;8.612;2023-07-08T02:11:24;25.23;;;7.53;;
5722;SDS011;2886;49.722;8.612;2023-07-08T02:13:50;16.03;;;8.00;;
5722;SDS011;2886;49.722;8.612;2023-07-08T02:16:16;15.67;;;7.33;;
5722;SDS011;2886;49.722;8.612;2023-07-08T02:18:41;13.80;;;7.97;;
5722;SDS011;2886;49.722;8.612;2023-07-08T02:21:08;13.10;;;7.27;;
5722;SDS011;2886;49.722;8.612;2023-07-08T02:23:34;15.73;;;8.03;;
5722;SDS011;2886;49.722;8.612;2023-07-08T02:25:59;13.70;;;7.90;;
5722;SDS011;2886;49.722;8.612;2023-07-08T02:28:25;15.00;;;6.50;;
5722;SDS011;2886;49.722;8.612;2023-07-08T02:30:51;14.20;;;7.17;;
5722;SDS011;2886;49.722;8.612;2023-07-08T02:33:17;16.43;;;7.83;;
5722;SDS011;2886;49.722;8.612;2023-07-08T02:35:42;18.83;;;8.70;;
5722;SDS011;2886;49.722;8.612;2023-07-08T02:38:08;13.73;;;7.60;;
5722;SDS011;2886;49.722;8.612;2023-07-08T02:40:34;13.30;;;7.63;;
5722;SDS011;2886;49.722;8.612;2023-07-08T02:42:59;13.03;;;7.00;;
5722;SDS011;2886;49.722;8.612;2023-07-08T02:45:25;24.67;;;7.97;;
5722;SDS011;2886;49.722;8.612;2023-07-08T02:47:52;21.27;;;8.00;;
5722;SDS011;2886;49.722;8.612;2023-07-08T02:50:17;16.07;;;8.30;;
5722;SDS011;2886;49.722;8.612;2023-07-08T02:52:44;16.03;;;7.67;;
5722;SDS011;2886;49.722;8.612;2023-07-08T02:55:10;12.97;;;7.90;;
5722;SDS011;2886;49.722;8.612;2023-07-08T02:57:35;19.40;;;7.80;;
5722;SDS011;2886;49.722;8.612;2023-07-08T03:00:01;14.80;;;7.57;;
5722;SDS011;2886;49.722;8.612;2023-07-08T03:02:29;15.37;;;7.10;;
5722;SDS011;2886;49.722;8.612;2023-07-08T03:04:55;15.50;;;8.73;;
5722;SDS011;2886;49.722;8.612;2023-07-08T03:07:24;16.53;;;7.70;;
5722;SDS011;2886;49.722;8.612;2023-07-08T03:09:50;12.03;;;6.93;;
5722;SDS011;2886;49.722;8.612;2023-07-08T03:12:15;15.37;;;8.47;;
5722;SDS011;2886;49.722;8.612;2023-07-08T03:14:41;18.40;;;8.00;;
5722;SDS011;2886;49.722;8.612;2023-07-08T03:17:06;16.90;;;7.30;;
5722;SDS011;2886;49.722;8.612;2023-07-08T03:19:32;16.37;;;7.60;;
5722;SDS011;2886;49.722;8.612;2023-07-08T03:21:58;17.67;;;8.80;;
5722;SDS011;2886;49.722;8.612;2023-07-08T03:24:24;15.57;;;8.20;;
5722;SDS011;2886;49.722;8.612;2023-07-08T03:26:49;14.10;;;7.40;;
5722;SDS011;2886;49.722;8.612;2023-07-08T03:29:19;18.73;;;8.40;;
5722;SDS011;2886;49.722;8.612;2023-07-08T03:31:45;13.60;;;6.60;;
5722;SDS011;2886;49.722;8.612;2023-07-08T03:34:11;17.93;;;8.43;;
5722;SDS011;2886;49.722;8.612;2023-07-08T03:36:45;12.00;;;7.17;;
5722;SDS011;2886;49.722;8.612;2023-07-08T03:39:15;13.20;;;7.20;;
5722;SDS011;2886;49.722;8.612;2023-07-08T03:41:45;10.83;;;6.60;;
5722;SDS011;2886;49.722;8.612;2023-07-08T03:44:12;13.70;;;7.07;;
5722;SDS011;2886;49.722;8.612;2023-07-08T03:46:38;13.10;;;6.40;;
5722;SDS011;2886;49.722;8.612;2023-07-08T03:49:04;23.53;;;7.37;;
5722;SDS011;2886;49.722;8.612;2023-07-08T03:51:32;16.73;;;6.97;;
5722;SDS011;2886;49.722;8.612;2023-07-08T03:53:59;13.87;;;7.27;;
5722;SDS011;2886;49.722;8.612;2023-07-08T03:56:25;15.33;;;6.70;;
5722;SDS011;2886;49.722;8.612;2023-07-08T03:58:51;18.13;;;6.90;;
5722;SDS011;2886;49.722;8.612;2023-07-08T04:01:17;13.73;;;7.10;;
5722;SDS011;2886;49.722;8.612;2023-07-08T04:03:45;18.60;;;6.83;;
5722;SDS011;2886;49.722;8.612;2023-07-08T04:06:11;13.40;;;7.60;;
5722;SDS011;2886;49.722;8.612;2023-07-08T04:08:37;19.63;;;7.93;;
5722;SDS011;2886;49.722;8.612;2023-07-08T04:11:03;15.97;;;8.93;;
5722;SDS011;2886;49.722;8.612;2023-07-08T04:13:28;14.93;;;7.17;;
5722;SDS011;2886;49.722;8.612;2023-07-08T04:15:55;13.13;;;7.80;;
5722;SDS011;2886;49.722;8.612;2023-07-08T04:18:23;12.67;;;6.70;;
5722;SDS011;2886;49.722;8.612;2023-07-08T04:20:49;14.27;;;7.60;;
5722;SDS011;2886;49.722;8.612;2023-07-08T04:23:17;16.33;;;7.60;;
5722;SDS011;2886;49.722;8.612;2023-07-08T04:25:44;16.10;;;7.63;;
5722;SDS011;2886;49.722;8.612;2023-07-08T04:28:10;13.03;;;7.40;;
5722;SDS011;2886;49.722;8.612;2023-07-08T04:30:35;12.53;;;6.80;;
5722;SDS011;2886;49.722;8.612;2023-07-08T04:33:06;12.90;;;7.33;;
5722;SDS011;2886;49.722;8.612;2023-07-08T04:35:33;10.73;;;6.63;;
5722;SDS011;2886;49.722;8.612;2023-07-08T04:38:02;14.33;;;7.17;;
5722;SDS011;2886;49.722;8.612;2023-07-08T04:40:34;21.33;;;8.17;;
5722;SDS011;2886;49.722;8.612;2023-07-08T04:43:04;27.13;;;7.73;;
5722;SDS011;2886;49.722;8.612;2023-07-08T04:45:30;9.77;;;5.97;;
5722;SDS011;2886;49.722;8.612;2023-07-08T04:47:56;18.07;;;8.00;;
5722;SDS011;2886;49.722;8.612;2023-07-08T04:50:22;15.23;;;7.93;;
5722;SDS011;2886;49.722;8.612;2023-07-08T04:52:47;12.47;;;7.13;;
5722;SDS011;2886;49.722;8.612;2023-07-08T04:55:14;13.97;;;6.77;;
5722;SDS011;2886;49.722;8.612;2023-07-08T04:57:41;15.90;;;7.33;;
5722;SDS011;2886;49.722;8.612;2023-07-08T05:00:09;14.70;;;8.00;;
5722;SDS011;2886;49.722;8.612;2023-07-08T05:02:40;15.63;;;7.57;;
5722;SDS011;2886;49.722;8.612;2023-07-08T05:05:06;15.23;;;7.80;;
5722;SDS011;2886;49.722;8.612;2023-07-08T05:07:32;12.50;;;6.07;;
5722;SDS011;2886;49.722;8.612;2023-07-08T05:09:58;24.90;;;7.10;;
5722;SDS011;2886;49.722;8.612;2023-07-08T05:12:25;11.07;;;6.33;;
5722;SDS011;2886;49.722;8.612;2023-07-08T05:14:51;12.47;;;6.50;;
5722;SDS011;2886;49.722;8.612;2023-07-08T05:17:17;12.90;;;7.40;;
5722;SDS011;2886;49.722;8.612;2023-07-08T05:19:42;14.03;;;7.00;;
5722;SDS011;2886;49.722;8.612;2023-07-08T05:22:10;19.90;;;7.60;;
5722;SDS011;2886;49.722;8.612;2023-07-08T05:24:36;18.03;;;7.90;;
5722;SDS011;2886;49.722;8.612;2023-07-08T05:27:02;13.57;;;6.97;;
5722;SDS011;2886;49.722;8.612;2023-07-08T05:29:28;13.93;;;8.10;;
5722;SDS011;2886;49.722;8.612;2023-07-08T05:31:54;16.97;;;8.20;;
5722;SDS011;2886;49.722;8.612;2023-07-08T05:34:19;14.27;;;7.90;;
5722;SDS011;2886;49.722;8.612;2023-07-08T05:36:45;16.57;;;7.47;;
5722;SDS011;2886;49.722;8.612;2023-07-08T05:39:11;24.07;;;7.70;;
5722;SDS011;2886;49.722;8.612;2023-07-08T05:41:37;16.50;;;7.00;;
5722;SDS011;2886;49.722;8.612;2023-07-08T05:44:03;11.07;;;6.37;;
5722;SDS011;2886;49.722;8.612;2023-07-08T05:46:30;13.47;;;6.83;;
5722;SDS011;2886;49.722;8.612;2023-07-08T05:48:55;12.57;;;7.40;;
5722;SDS011;2886;49.722;8.612;2023-07-08T05:51:21;13.43;;;6.93;;
5722;SDS011;2886;49.722;8.612;2023-07-08T05:53:47;10.33;;;6.37;;
5722;SDS011;2886;49.722;8.612;2023-07-08T05:56:13;10.30;;;6.03;;
5722;SDS011;2886;49.722;8.612;2023-07-08T05:58:38;12.13;;;6.97;;
5722;SDS011;2886;49.722;8.612;2023-07-08T06:01:04;10.27;;;6.33;;
5722;SDS011;2886;49.722;8.612;2023-07-08T06:03:30;13.80;;;6.93;;
5722;SDS011;2886;49.722;8.612;2023-07-08T06:05:55;9.20;;;6.17;;
5722;SDS011;2886;49.722;8.612;2023-07-08T06:08:21;16.60;;;7.13;;
5722;SDS011;2886;49.722;8.612;2023-07-08T06:10:47;10.90;;;6.80;;
5722;SDS011;2886;49.722;8.612;2023-07-08T06:13:14;12.30;;;6.57;;
5722;SDS011;2886;49.722;8.612;2023-07-08T06:15:40;10.90;;;6.60;;
5722;SDS011;2886;49.722;8.612;2023-07-08T06:18:06;13.50;;;7.10;;
5722;SDS011;2886;49.722;8.612;2023-07-08T06:20:32;11.83;;;6.27;;
5722;SDS011;2886;49.722;8.612;2023-07-08T06:22:58;12.57;;;6.53;;
5722;SDS011;2886;49.722;8.612;2023-07-08T06:25:24;10.40;;;6.77;;
5722;SDS011;2886;49.722;8.612;2023-07-08T06:27:49;9.70;;;6.00;;
5722;SDS011;2886;49.722;8.612;2023-07-08T06:30:15;13.30;;;6.67;;
5722;SDS011;2886;49.722;8.612;2023-07-08T06:32:41;15.97;;;6.90;;
5722;SDS011;2886;49.722;8.612;2023-07-08T06:35:06;15.73;;;7.00;;
5722;SDS011;2886;49.722;8.612;2023-07-08T06:37:32;17.00;;;6.60;;
5722;SDS011;2886;49.722;8.612;2023-07-08T06:39:58;10.93;;;6.27;;
5722;SDS011;2886;49.722;8.612;2023-07-08T06:42:24;12.90;;;6.03;;
5722;SDS011;2886;49.722;8.612;2023-07-08T06:44:49;12.50;;;5.80;;
5722;SDS011;2886;49.722;8.612;2023-07-08T06:47:19;9.80;;;5.30;;
5722;SDS011;2886;49.722;8.612;2023-07-08T06:49:46;9.40;;;5.43;;
5722;SDS011;2886;49.722;8.612;2023-07-08T06:52:12;11.43;;;5.50;;
5722;SDS011;2886;49.722;8.612;2023-07-08T06:54:38;13.57;;;5.70;;
5722;SDS011;2886;49.722;8.612;2023-07-08T06:57:04;10.77;;;5.80;;
5722;SDS011;2886;49.722;8.612;2023-07-08T06:59:30;11.33;;;4.90;;
5722;SDS011;2886;49.722;8.612;2023-07-08T07:01:55;8.77;;;5.00;;
5722;SDS011;2886;49.722;8.612;2023-07-08T07:04:21;5.77;;;4.07;;
5722;SDS011;2886;49.722;8.612;2023-07-08T07:06:47;8.40;;;5.10;;
5722;SDS011;2886;49.722;8.612;2023-07-08T07:09:12;12.93;;;5.80;;
5722;SDS011;2886;49.722;8.612;2023-07-08T07:11:38;12.03;;;6.43;;
5722;SDS011;2886;49.722;8.612;2023-07-08T07:14:03;14.40;;;7.00;;
5722;SDS011;2886;49.722;8.612;2023-07-08T07:16:29;11.67;;;5.83;;
5722;SDS011;2886;49.722;8.612;2023-07-08T07:18:55;9.77;;;6.07;;
5722;SDS011;2886;49.722;8.612;2023-07-08T07:21:21;15.90;;;7.20;;
5722;SDS011;2886;49.722;8.612;2023-07-08T07:23:46;12.50;;;6.17;;
5722;SDS011;2886;49.722;8.612;2023-07-08T07:26:12;10.43;;;6.20;;
5722;SDS011;2886;49.722;8.612;2023-07-08T07:28:38;13.73;;;6.27;;
5722;SDS011;2886;49.722;8.612;2023-07-08T07:31:04;11.97;;;6.77;;
5722;SDS011;2886;49.722;8.612;2023-07-08T07:33:32;10.30;;;5.90;;
5722;SDS011;2886;49.722;8.612;2023-07-08T07:35:58;8.53;;;5.47;;
5722;SDS011;2886;49.722;8.612;2023-07-08T07:38:24;15.73;;;6.77;;
5722;SDS011;2886;49.722;8.612;2023-07-08T07:40:53;12.17;;;6.43;;
5722;SDS011;2886;49.722;8.612;2023-07-08T07:43:20;8.83;;;5.97;;
5722;SDS011;2886;49.722;8.612;2023-07-08T07:45:49;10.30;;;6.50;;
5722;SDS011;2886;49.722;8.612;2023-07-08T07:48:16;10.57;;;6.30;;
5722;SDS011;2886;49.722;8.612;2023-07-08T07:50:44;11.83;;;6.80;;
5722;SDS011;2886;49.722;8.612;2023-07-08T07:53:14;15.20;;;7.57;;
5722;SDS011;2886;49.722;8.612;2023-07-08T07:55:39;9.43;;;6.00;;
5722;SDS011;2886;49.722;8.612;2023-07-08T07:58:05;11.00;;;6.20;;
5722;SDS011;2886;49.722;8.612;2023-07-08T08:00:30;12.70;;;6.27;;
5722;SDS011;2886;49.722;8.612;2023-07-08T08:02:56;13.27;;;6.77;;
5722;SDS011;2886;49.722;8.612;2023-07-08T08:05:22;10.80;;;6.03;;
5722;SDS011;2886;49.722;8.612;2023-07-08T08:07:48;15.87;;;6.53;;
5722;SDS011;2886;49.722;8.612;2023-07-08T08:10:14;13.40;;;7.10;;
5722;SDS011;2886;49.722;8.612;2023-07-08T08:12:39;12.53;;;6.53;;
5722;SDS011;2886;49.722;8.612;2023-07-08T08:15:05;10.57;;;6.07;;
5722;SDS011;2886;49.722;8.612;2023-07-08T08:17:31;12.90;;;7.07;;
5722;SDS011;2886;49.722;8.612;2023-07-08T08:19:57;14.50;;;7.40;;
5722;SDS011;2886;49.722;8.612;2023-07-08T08:22:23;15.10;;;6.47;;
5722;SDS011;2886;49.722;8.612;2023-07-08T08:24:49;13.17;;;6.83;;
5722;SDS011;2886;49.722;8.612;2023-07-08T08:27:15;12.17;;;7.00;;
5722;SDS011;2886;49.722;8.612;2023-07-08T08:29:40;16.20;;;6.27;;
5722;SDS011;2886;49.722;8.612;2023-07-08T08:32:06;11.37;;;6.87;;
5722;SDS011;2886;49.722;8.612;2023-07-08T08:34:32;12.67;;;6.00;;
5722;SDS011;2886;49.722;8.612;2023-07-08T08:36:57;10.00;;;6.10;;
5722;SDS011;2886;49.722;8.612;2023-07-08T08:39:23;10.27;;;6.80;;
5722;SDS011;2886;49.722;8.612;2023-07-08T08:41:51;13.43;;;7.37;;
5722;SDS011;2886;49.722;8.612;2023-07-08T08:44:22;14.60;;;7.00;;
5722;SDS011;2886;49.722;8.612;2023-07-08T08:47:05;11.93;;;6.27;;
5722;SDS011;2886;49.722;8.612;2023-07-08T08:49:47;10.77;;;6.50;;
5722;SDS011;2886;49.722;8.612;2023-07-08T08:52:19;12.20;;;7.00;;
5722;SDS011;2886;49.722;8.612;2023-07-08T08:54:44;9.50;;;6.50;;
5722;SDS011;2886;49.722;8.612;2023-07-08T08:59:57;10.40;;;5.67;;
5722;SDS011;2886;49.722;8.612;2023-07-08T09:05:16;8.90;;;5.10;;
5722;SDS011;2886;49.722;8.612;2023-07-08T09:07:47;9.90;;;5.97;;
5722;SDS011;2886;49.722;8.612;2023-07-08T09:10:35;8.60;;;5.27;;
5722;SDS011;2886;49.722;8.612;2023-07-08T09:13:33;11.70;;;5.47;;
5722;SDS011;2886;49.722;8.612;2023-07-08T09:18:41;7.63;;;4.30;;
5722;SDS011;2886;49.722;8.612;2023-07-08T09:21:20;7.50;;;3.93;;
5722;SDS011;2886;49.722;8.612;2023-07-08T09:23:52;7.30;;;4.20;;
5722;SDS011;2886;49.722;8.612;2023-07-08T09:26:25;6.00;;;3.83;;
5722;SDS011;2886;49.722;8.612;2023-07-08T09:28:54;5.87;;;4.37;;
5722;SDS011;2886;49.722;8.612;2023-07-08T09:33:51;6.30;;;3.80;;
5722;SDS011;2886;49.722;8.612;2023-07-08T09:36:43;7.67;;;4.03;;
5722;SDS011;2886;49.722;8.612;2023-07-08T09:39:15;5.80;;;4.00;;
5722;SDS011;2886;49.722;8.612;2023-07-08T09:41:43;13.27;;;4.00;;
5722;SDS011;2886;49.722;8.612;2023-07-08T09:46:44;8.00;;;4.37;;
5722;SDS011;2886;49.722;8.612;2023-07-08T09:49:29;8.53;;;4.30;;
5722;SDS011;2886;49.722;8.612;2023-07-08T09:51:58;8.23;;;3.63;;
5722;SDS011;2886;49.722;8.612;2023-07-08T09:54:24;8.20;;;3.70;;
5722;SDS011;2886;49.722;8.612;2023-07-08T09:56:55;5.70;;;4.17;;
5722;SDS011;2886;49.722;8.612;2023-07-08T09:59:26;5.30;;;3.97;;
5722;SDS011;2886;49.722;8.612;2023-07-08T10:01:56;6.00;;;4.20;;
5722;SDS011;2886;49.722;8.612;2023-07-08T10:04:24;7.03;;;4.17;;
5722;SDS011;2886;49.722;8.612;2023-07-08T10:06:50;4.73;;;3.73;;
5722;SDS011;2886;49.722;8.612;2023-07-08T10:09:19;7.37;;;4.43;;
5722;SDS011;2886;49.722;8.612;2023-07-08T10:11:47;7.43;;;4.00;;
5722;SDS011;2886;49.722;8.612;2023-07-08T10:14:23;5.47;;;3.90;;
5722;SDS011;2886;49.722;8.612;2023-07-08T10:16:56;7.77;;;3.70;;
5722;SDS011;2886;49.722;8.612;2023-07-08T10:19:22;6.50;;;4.10;;
5722;SDS011;2886;49.722;8.612;2023-07-08T10:30:03;6.10;;;4.53;;
5722;SDS011;2886;49.722;8.612;2023-07-08T10:32:44;7.13;;;4.23;;
5722;SDS011;2886;49.722;8.612;2023-07-08T10:40:49;8.60;;;4.60;;
5722;SDS011;2886;49.722;8.612;2023-07-08T10:43:27;7.97;;;4.60;;
5722;SDS011;2886;49.722;8.612;2023-07-08T10:46:17;13.03;;;5.20;;
5722;SDS011;2886;49.722;8.612;2023-07-08T10:49:23;10.30;;;4.07;;
5722;SDS011;2886;49.722;8.612;2023-07-08T10:54:30;6.87;;;3.93;;
5722;SDS011;2886;49.722;8.612;2023-07-08T11:00:24;8.43;;;5.07;;
5722;SDS011;2886;49.722;8.612;2023-07-08T11:03:20;8.23;;;4.50;;
5722;SDS011;2886;49.722;8.612;2023-07-08T11:05:59;8.27;;;4.10;;
5722;SDS011;2886;49.722;8.612;2023-07-08T11:08:32;5.90;;;4.07;;
5722;SDS011;2886;49.722;8.612;2023-07-08T11:13:39;6.20;;;4.00;;
5722;SDS011;2886;49.722;8.612;2023-07-08T11:16:20;5.53;;;4.20;;
5722;SDS011;2886;49.722;8.612;2023-07-08T11:21:31;8.53;;;4.40;;
5722;SDS011;2886;49.722;8.612;2023-07-08T11:24:15;7.73;;;4.63;;
5722;SDS011;2886;49.722;8.612;2023-07-08T11:26:50;6.60;;;4.77;;
5722;SDS011;2886;49.722;8.612;2023-07-08T11:29:20;6.77;;;4.43;;
5722;SDS011;2886;49.722;8.612;2023-07-08T11:31:49;5.47;;;4.40;;
5722;SDS011;2886;49.722;8.612;2023-07-08T11:34:17;6.73;;;4.10;;
5722;SDS011;2886;49.722;8.612;2023-07-08T11:36:44;5.37;;;4.27;;
5722;SDS011;2886;49.722;8.612;2023-07-08T11:45:32;29.90;;;7.97;;
5722;SDS011;2886;49.722;8.612;2023-07-08T11:48:03;8.03;;;4.30;;
5722;SDS011;2886;49.722;8.612;2023-07-08T11:50:32;11.43;;;3.70;;
5722;SDS011;2886;49.722;8.612;2023-07-08T11:55:57;9.57;;;3.90;;
5722;SDS011;2886;49.722;8.612;2023-07-08T11:58:24;6.97;;;3.97;;
5722;SDS011;2886;49.722;8.612;2023-07-08T12:00:57;25.97;;;5.80;;
5722;SDS011;2886;49.722;8.612;2023-07-08T12:03:28;10.70;;;4.97;;
5722;SDS011;2886;49.722;8.612;2023-07-08T12:08:52;22.20;;;6.33;;
5722;SDS011;2886;49.722;8.612;2023-07-08T12:11:19;5.50;;;3.63;;
5722;SDS011;2886;49.722;8.612;2023-07-08T12:13:52;6.17;;;4.10;;
5722;SDS011;2886;49.722;8.612;2023-07-08T12:16:20;9.13;;;4.00;;
5722;SDS011;2886;49.722;8.612;2023-07-08T12:18:46;7.53;;;4.07;;
5722;SDS011;2886;49.722;8.612;2023-07-08T12:21:13;9.63;;;3.93;;
5722;SDS011;2886;49.722;8.612;2023-07-08T12:23:44;5.17;;;3.53;;
5722;SDS011;2886;49.722;8.612;2023-07-08T12:26:10;5.50;;;3.30;;
5722;SDS011;2886;49.722;8.612;2023-07-08T12:28:36;4.37;;;3.50;;
5722;SDS011;2886;49.722;8.612;2023-07-08T12:31:04;28.30;;;8.27;;
5722;SDS011;2886;49.722;8.612;2023-07-08T12:33:43;5.73;;;3.90;;
5722;SDS011;2886;49.722;8.612;2023-07-08T12:36:10;7.10;;;4.20;;
5722;SDS011;2886;49.722;8.612;2023-07-08T12:38:42;6.20;;;3.87;;
5722;SDS011;2886;49.722;8.612;2023-07-08T12:43:37;5.93;;;3.87;;
5722;SDS011;2886;49.722;8.612;2023-07-08T12:46:03;5.17;;;3.50;;
5722;SDS011;2886;49.722;8.612;2023-07-08T12:48:35;4.10;;;3.37;;
5722;SDS011;2886;49.722;8.612;2023-07-08T12:51:02;5.80;;;3.80;;
5722;SDS011;2886;49.722;8.612;2023-07-08T12:53:29;8.83;;;3.87;;
5722;SDS011;2886;49.722;8.612;2023-07-08T12:55:55;13.93;;;4.00;;
5722;SDS011;2886;49.722;8.612;2023-07-08T12:58:25;4.60;;;3.43;;
5722;SDS011;2886;49.722;8.612;2023-07-08T13:00:52;6.20;;;3.73;;
5722;SDS011;2886;49.722;8.612;2023-07-08T13:03:19;27.47;;;4.23;;
5722;SDS011;2886;49.722;8.612;2023-07-08T13:05:48;7.10;;;3.70;;
5722;SDS011;2886;49.722;8.612;2023-07-08T13:08:17;5.90;;;3.30;;
5722;SDS011;2886;49.722;8.612;2023-07-08T13:10:45;5.07;;;2.87;;
5722;SDS011;2886;49.722;8.612;2023-07-08T13:13:12;8.60;;;3.27;;
5722;SDS011;2886;49.722;8.612;2023-07-08T13:15:42;8.00;;;4.03;;
5722;SDS011;2886;49.722;8.612;2023-07-08T13:18:13;3.73;;;2.70;;
5722;SDS011;2886;49.722;8.612;2023-07-08T13:20:49;5.30;;;3.60;;
5722;SDS011;2886;49.722;8.612;2023-07-08T13:23:17;18.70;;;3.73;;
5722;SDS011;2886;49.722;8.612;2023-07-08T13:25:44;8.80;;;3.40;;
5722;SDS011;2886;49.722;8.612;2023-07-08T13:28:23;6.77;;;3.23;;
5722;SDS011;2886;49.722;8.612;2023-07-08T13:30:51;8.70;;;3.87;;
5722;SDS011;2886;49.722;8.612;2023-07-08T13:33:28;4.93;;;3.53;;
5722;SDS011;2886;49.722;8.612;2023-07-08T13:36:01;14.30;;;3.70;;
5722;SDS011;2886;49.722;8.612;2023-07-08T13:38:31;7.70;;;3.50;;
5722;SDS011;2886;49.722;8.612;2023-07-08T13:41:00;4.53;;;3.37;;
5722;SDS011;2886;49.722;8.612;2023-07-08T13:43:29;5.93;;;3.77;;
5722;SDS011;2886;49.722;8.612;2023-07-08T13:45:56;5.63;;;3.30;;
5722;SDS011;2886;49.722;8.612;2023-07-08T13:48:30;4.40;;;2.83;;
5722;SDS011;2886;49.722;8.612;2023-07-08T13:53:41;5.70;;;3.37;;
5722;SDS011;2886;49.722;8.612;2023-07-08T13:56:12;6.90;;;3.27;;
5722;SDS011;2886;49.722;8.612;2023-07-08T13:58:44;4.20;;;3.50;;
5722;SDS011;2886;49.722;8.612;2023-07-08T14:01:23;6.70;;;3.97;;
5722;SDS011;2886;49.722;8.612;2023-07-08T14:03:50;5.10;;;3.70;;
5722;SDS011;2886;49.722;8.612;2023-07-08T14:06:19;6.83;;;3.67;;
5722;SDS011;2886;49.722;8.612;2023-07-08T14:08:47;7.70;;;3.97;;
5722;SDS011;2886;49.722;8.612;2023-07-08T14:11:13;5.80;;;3.90;;
5722;SDS011;2886;49.722;8.612;2023-07-08T14:13:39;6.47;;;4.17;;
5722;SDS011;2886;49.722;8.612;2023-07-08T14:16:08;10.90;;;4.20;;
5722;SDS011;2886;49.722;8.612;2023-07-08T14:18:57;10.83;;;3.10;;
5722;SDS011;2886;49.722;8.612;2023-07-08T14:21:25;5.93;;;3.70;;
5722;SDS011;2886;49.722;8.612;2023-07-08T14:23:50;7.30;;;4.10;;
5722;SDS011;2886;49.722;8.612;2023-07-08T14:26:16;7.00;;;3.57;;
5722;SDS011;2886;49.722;8.612;2023-07-08T14:28:41;9.43;;;3.57;;
5722;SDS011;2886;49.722;8.612;2023-07-08T14:31:08;9.70;;;3.90;;
5722;SDS011;2886;49.722;8.612;2023-07-08T14:33:36;5.37;;;3.10;;
5722;SDS011;2886;49.722;8.612;2023-07-08T14:36:02;5.60;;;3.80;;
5722;SDS011;2886;49.722;8.612;2023-07-08T14:38:28;8.13;;;3.60;;
5722;SDS011;2886;49.722;8.612;2023-07-08T14:40:53;5.53;;;3.60;;
5722;SDS011;2886;49.722;8.612;2023-07-08T14:43:24;4.90;;;3.73;;
5722;SDS011;2886;49.722;8.612;2023-07-08T14:45:54;9.23;;;3.97;;
5722;SDS011;2886;49.722;8.612;2023-07-08T14:48:21;4.83;;;3.67;;
5722;SDS011;2886;49.722;8.612;2023-07-08T14:50:48;9.33;;;4.17;;
5722;SDS011;2886;49.722;8.612;2023-07-08T14:53:14;8.27;;;4.30;;
5722;SDS011;2886;49.722;8.612;2023-07-08T14:55:42;5.33;;;3.43;;
5722;SDS011;2886;49.722;8.612;2023-07-08T14:58:09;9.83;;;3.80;;
5722;SDS011;2886;49.722;8.612;2023-07-08T15:00:50;8.90;;;3.60;;
5722;SDS011;2886;49.722;8.612;2023-07-08T15:03:16;10.03;;;4.43;;
5722;SDS011;2886;49.722;8.612;2023-07-08T15:05:42;5.47;;;3.57;;
5722;SDS011;2886;49.722;8.612;2023-07-08T15:08:09;7.20;;;4.20;;
5722;SDS011;2886;49.722;8.612;2023-07-08T15:10:34;5.03;;;3.73;;
5722;SDS011;2886;49.722;8.612;2023-07-08T15:13:03;6.80;;;3.83;;
5722;SDS011;2886;49.722;8.612;2023-07-08T15:15:34;9.50;;;3.83;;
5722;SDS011;2886;49.722;8.612;2023-07-08T15:18:11;6.30;;;4.20;;
5722;SDS011;2886;49.722;8.612;2023-07-08T15:20:39;6.40;;;4.00;;
5722;SDS011;2886;49.722;8.612;2023-07-08T15:23:05;5.67;;;3.93;;
5722;SDS011;2886;49.722;8.612;2023-07-08T15:25:30;7.90;;;3.70;;
5722;SDS011;2886;49.722;8.612;2023-07-08T15:27:59;6.90;;;3.70;;
5722;SDS011;2886;49.722;8.612;2023-07-08T15:30:26;5.63;;;3.50;;
5722;SDS011;2886;49.722;8.612;2023-07-08T15:32:53;5.53;;;3.40;;
5722;SDS011;2886;49.722;8.612;2023-07-08T15:35:20;5.97;;;3.93;;
5722;SDS011;2886;49.722;8.612;2023-07-08T15:37:50;6.77;;;3.43;;
5722;SDS011;2886;49.722;8.612;2023-07-08T15:40:17;8.07;;;4.10;;
5722;SDS011;2886;49.722;8.612;2023-07-08T15:42:47;8.03;;;3.43;;
5722;SDS011;2886;49.722;8.612;2023-07-08T15:45:21;10.17;;;3.30;;
5722;SDS011;2886;49.722;8.612;2023-07-08T15:47:52;6.60;;;3.60;;
5722;SDS011;2886;49.722;8.612;2023-07-08T15:50:20;4.80;;;3.47;;
5722;SDS011;2886;49.722;8.612;2023-07-08T15:52:47;6.77;;;3.60;;
5722;SDS011;2886;49.722;8.612;2023-07-08T15:55:16;11.83;;;4.03;;
5722;SDS011;2886;49.722;8.612;2023-07-08T15:57:52;4.43;;;3.33;;
5722;SDS011;2886;49.722;8.612;2023-07-08T16:00:29;8.53;;;4.10;;
5722;SDS011;2886;49.722;8.612;2023-07-08T16:02:58;5.30;;;3.77;;
5722;SDS011;2886;49.722;8.612;2023-07-08T16:05:26;8.03;;;4.00;;
5722;SDS011;2886;49.722;8.612;2023-07-08T16:07:53;5.83;;;3.57;;
5722;SDS011;2886;49.722;8.612;2023-07-08T16:10:20;6.37;;;3.90;;
5722;SDS011;2886;49.722;8.612;2023-07-08T16:12:47;9.67;;;4.33;;
5722;SDS011;2886;49.722;8.612;2023-07-08T16:15:17;9.77;;;3.67;;
5722;SDS011;2886;49.722;8.612;2023-07-08T16:17:44;10.53;;;3.33;;
5722;SDS011;2886;49.722;8.612;2023-07-08T16:20:20;4.23;;;3.33;;
5722;SDS011;2886;49.722;8.612;2023-07-08T16:22:49;11.43;;;4.20;;
5722;SDS011;2886;49.722;8.612;2023-07-08T16:25:16;5.43;;;3.53;;